Time;durP1;ratioP1;P1;durP2;ratioP2;P2;SDS_P1;SDS_P2;PMS_P1;PMS_P2;Temp;Humidity;BMP_temperature;BMP_pressure;BME280_temperature;BME280_humidity;BME280_pressure;Samples;Min_cycle;Max_cycle;Signal;HPM_P1;HPM_P2
2023/07/02 00:01:12;;;;;;;9.60;4.78;;;18.80;87.70;;;;;;5115325;28;20032;-77
2023/07/02 00:03:38;;;;;;;10.70;4.63;;;18.90;87.70;;;;;;5098463;28;20020;-77
2023/07/02 00:06:05;;;;;;;13.35;5.78;;;18.90;87.50;;;;;;5115152;28;20113;-77
2023/07/02 00:08:30;;;;;;;9.48;4.65;;;18.80;87.40;;;;;;5115154;28;20051;-77
2023/07/02 00:10:56;;;;;;;13.35;4.57;;;18.80;87.50;;;;;;5115092;28;20055;-77
2023/07/02 00:13:21;;;;;;;9.55;4.88;;;18.70;87.50;;;;;;5098128;28;20028;-77
2023/07/02 00:15:47;;;;;;;9.90;5.20;;;18.70;87.50;;;;;;5114991;28;20020;-77
2023/07/02 00:18:16;;;;;;;12.13;5.13;;;18.70;86.90;;;;;;5114823;28;20430;-76
2023/07/02 00:20:42;;;;;;;12.77;5.47;;;18.70;87.70;;;;;;5114954;28;20017;-77
2023/07/02 00:23:09;;;;;;;13.05;5.18;;;18.60;87.40;;;;;;5114840;28;20049;-77
2023/07/02 00:25:38;;;;;;;11.43;4.78;;;18.70;87.50;;;;;;5114773;28;20042;-76
2023/07/02 00:28:04;;;;;;;15.82;5.47;;;18.60;87.40;;;;;;5115518;28;20052;-77
2023/07/02 00:30:29;;;;;;;14.55;5.40;;;18.60;87.80;;;;;;5114759;28;20040;-76
2023/07/02 00:32:55;;;;;;;11.27;5.75;;;18.60;87.90;;;;;;5097607;28;20024;-76
2023/07/02 00:35:21;;;;;;;13.93;4.88;;;18.50;88.30;;;;;;5114597;28;20025;-77
2023/07/02 00:37:47;;;;;;;11.48;5.65;;;18.40;88.20;;;;;;5097618;28;20099;-77
2023/07/02 00:40:13;;;;;;;11.40;5.43;;;18.50;88.10;;;;;;5114481;28;20042;-77
2023/07/02 00:42:38;;;;;;;15.90;6.28;;;18.50;88.10;;;;;;5114427;28;20019;-77
2023/07/02 00:45:05;;;;;;;12.68;5.13;;;18.50;87.80;;;;;;5115395;28;20066;-77
2023/07/02 00:47:35;;;;;;;15.05;5.50;;;18.50;87.70;;;;;;5097513;28;20032;-77
2023/07/02 00:50:02;;;;;;;12.32;4.80;;;18.50;87.40;;;;;;5115294;28;20024;-77
2023/07/02 00:52:28;;;;;;;13.18;5.20;;;18.50;87.70;;;;;;5114170;28;20020;-77
2023/07/02 00:54:54;;;;;;;12.65;5.05;;;18.50;87.50;;;;;;5115152;28;20063;-77
2023/07/02 00:57:19;;;;;;;11.60;6.07;;;18.40;87.60;;;;;;5097350;28;20032;-77
2023/07/02 00:59:45;;;;;;;13.23;5.72;;;18.50;87.50;;;;;;5114182;28;20051;-77
2023/07/02 01:02:12;;;;;;;16.55;6.43;;;18.50;87.50;;;;;;5096973;28;20028;-77
2023/07/02 01:04:39;;;;;;;16.98;6.10;;;18.50;88.40;;;;;;5114237;28;20024;-77
2023/07/02 01:07:09;;;;;;;12.40;5.43;;;18.50;87.40;;;;;;5113824;28;20028;-77
2023/07/02 01:09:35;;;;;;;13.82;6.10;;;18.50;87.00;;;;;;5097798;28;20024;-77
2023/07/02 01:12:05;;;;;;;20.67;6.88;;;18.50;87.10;;;;;;5097026;28;20024;-77
2023/07/02 01:14:43;;;;;;;13.95;6.00;;;18.50;87.00;;;;;;5113961;28;20045;-77
2023/07/02 01:17:10;;;;;;;15.52;6.43;;;18.60;86.90;;;;;;5113774;28;20031;-77
2023/07/02 01:19:44;;;;;;;16.92;6.75;;;18.70;86.80;;;;;;5113772;28;20032;-77
2023/07/02 01:22:11;;;;;;;13.75;6.13;;;18.70;86.80;;;;;;5113641;28;20067;-76
2023/07/02 01:24:39;;;;;;;17.00;6.72;;;18.70;86.80;;;;;;5096583;28;20024;-77
2023/07/02 01:27:05;;;;;;;17.50;6.28;;;18.70;86.60;;;;;;5114252;28;20036;-76
2023/07/02 01:29:31;;;;;;;18.77;6.63;;;18.70;86.70;;;;;;5113590;28;20115;-77
2023/07/02 01:31:57;;;;;;;19.15;6.93;;;18.70;86.60;;;;;;5113546;28;20028;-77
2023/07/02 01:34:23;;;;;;;16.10;6.78;;;18.70;86.40;;;;;;5113241;28;20020;-77
2023/07/02 01:36:49;;;;;;;15.70;6.88;;;18.70;86.20;;;;;;5114367;28;20067;-77
2023/07/02 01:39:15;;;;;;;15.30;7.05;;;18.70;86.70;;;;;;5096466;28;20099;-77
2023/07/02 01:42:09;;;;;;;16.23;8.02;;;18.70;86.20;;;;;;5096439;28;20028;-78
2023/07/02 01:44:35;;;;;;;18.55;7.05;;;18.80;86.10;;;;;;5103350;28;20069;-77
2023/07/02 01:47:01;;;;;;;22.23;8.18;;;18.80;86.20;;;;;;5096182;28;20020;-77
2023/07/02 01:49:26;;;;;;;17.83;7.85;;;18.80;86.20;;;;;;5113067;28;20471;-77
2023/07/02 01:51:53;;;;;;;14.93;6.03;;;18.90;86.30;;;;;;5096245;28;20020;-77
2023/07/02 01:54:19;;;;;;;13.85;5.90;;;18.90;85.70;;;;;;5113073;28;20082;-78
2023/07/02 01:56:45;;;;;;;12.82;5.75;;;19.00;84.70;;;;;;5113067;28;20051;-77
2023/07/02 01:59:11;;;;;;;16.00;6.43;;;19.00;84.00;;;;;;5096004;28;20070;-78
2023/07/02 02:01:40;;;;;;;14.90;6.38;;;19.00;83.60;;;;;;5112949;28;20028;-78
2023/07/02 02:04:06;;;;;;;15.35;6.65;;;19.00;83.70;;;;;;5113090;28;20028;-77
2023/07/02 02:06:32;;;;;;;14.63;6.18;;;19.10;83.60;;;;;;5112877;28;20024;-77
2023/07/02 02:08:58;;;;;;;17.20;6.35;;;19.10;83.40;;;;;;5113823;28;20054;-77
2023/07/02 02:11:24;;;;;;;17.90;7.15;;;19.00;83.30;;;;;;5112817;28;20073;-77
2023/07/02 02:13:50;;;;;;;15.93;5.93;;;19.00;83.20;;;;;;5095546;28;20028;-77
2023/07/02 02:16:16;;;;;;;15.20;6.20;;;19.00;83.20;;;;;;5095866;28;20025;-77
2023/07/02 02:18:42;;;;;;;14.30;6.50;;;19.00;83.20;;;;;;5112751;28;20032;-77
2023/07/02 02:21:08;;;;;;;15.10;6.85;;;19.00;83.30;;;;;;5095749;28;20024;-77
2023/07/02 02:23:34;;;;;;;14.63;6.80;;;18.90;83.00;;;;;;5112701;28;20032;-77
2023/07/02 02:25:59;;;;;;;13.68;6.40;;;18.90;83.00;;;;;;5095638;28;20050;-78
2023/07/02 02:28:25;;;;;;;16.90;6.78;;;18.80;83.00;;;;;;5111834;28;20052;-77
2023/07/02 02:30:51;;;;;;;12.88;6.53;;;18.70;83.30;;;;;;5112234;28;20044;-77
2023/07/02 02:33:16;;;;;;;18.88;7.53;;;18.60;83.50;;;;;;5112568;28;20036;-77
2023/07/02 02:35:42;;;;;;;21.77;8.00;;;18.50;83.80;;;;;;5112486;28;20020;-78
2023/07/02 02:38:08;;;;;;;18.00;8.02;;;18.40;84.50;;;;;;5112487;28;20054;-77
2023/07/02 02:40:34;;;;;;;19.35;8.23;;;18.30;85.10;;;;;;5113448;28;20092;-77
2023/07/02 02:43:00;;;;;;;21.90;8.57;;;18.30;85.60;;;;;;5112564;28;20027;-76
2023/07/02 02:45:25;;;;;;;15.95;8.00;;;18.30;86.00;;;;;;5113577;28;20075;-77
2023/07/02 02:47:51;;;;;;;23.42;9.18;;;18.30;86.20;;;;;;5112293;28;20021;-77
2023/07/02 02:50:17;;;;;;;21.98;8.85;;;18.30;86.50;;;;;;5112437;28;20036;-77
2023/07/02 02:52:42;;;;;;;24.20;10.38;;;18.30;86.70;;;;;;5095735;28;20024;-77
2023/07/02 02:55:10;;;;;;;22.40;8.80;;;18.30;86.70;;;;;;5095379;28;20036;-77
2023/07/02 02:57:36;;;;;;;21.80;8.80;;;18.30;86.80;;;;;;5113296;28;20026;-77
2023/07/02 03:00:03;;;;;;;24.00;9.40;;;18.40;87.20;;;;;;5112305;28;20048;-77
2023/07/02 03:02:28;;;;;;;24.23;9.15;;;18.40;87.00;;;;;;5113247;28;20028;-77
2023/07/02 03:04:56;;;;;;;21.95;9.32;;;18.40;87.10;;;;;;5112367;28;20149;-78
2023/07/02 03:07:22;;;;;;;23.00;8.82;;;18.40;86.90;;;;;;5095531;28;20024;-77
2023/07/02 03:09:47;;;;;;;21.02;8.45;;;18.30;86.90;;;;;;5112130;28;20020;-78
2023/07/02 03:12:13;;;;;;;23.02;9.20;;;18.30;87.10;;;;;;5112172;28;20044;-78
2023/07/02 03:14:39;;;;;;;23.42;8.70;;;18.20;87.20;;;;;;5112264;28;20047;-77
2023/07/02 03:17:04;;;;;;;20.20;9.07;;;18.20;87.40;;;;;;5112177;28;20031;-77
2023/07/02 03:19:30;;;;;;;19.70;9.02;;;18.10;87.50;;;;;;5095135;28;20390;-77
2023/07/02 03:21:55;;;;;;;22.73;9.65;;;18.10;87.80;;;;;;5112156;28;20028;-77
2023/07/02 03:24:21;;;;;;;21.15;8.38;;;18.00;87.90;;;;;;5112147;28;20035;-77
2023/07/02 03:26:47;;;;;;;19.70;8.35;;;18.00;87.90;;;;;;5115790;28;20058;-78
2023/07/02 03:29:12;;;;;;;20.10;7.90;;;18.00;87.90;;;;;;5115844;28;20024;-77
2023/07/02 03:31:38;;;;;;;20.13;9.13;;;17.90;87.90;;;;;;5115664;28;20048;-77
2023/07/02 03:34:07;;;;;;;22.70;9.75;;;17.90;88.80;;;;;;5115769;28;20035;-77
2023/07/02 03:36:33;;;;;;;19.17;9.00;;;17.90;87.80;;;;;;5116672;28;20024;-77
2023/07/02 03:38:59;;;;;;;22.08;8.43;;;17.90;87.90;;;;;;5115597;28;20039;-78
2023/07/02 03:41:24;;;;;;;16.52;7.82;;;17.90;87.40;;;;;;5116721;28;20029;-77
2023/07/02 03:43:50;;;;;;;18.92;8.20;;;17.90;86.70;;;;;;5116544;28;20028;-77
2023/07/02 03:46:16;;;;;;;20.55;8.30;;;17.90;86.40;;;;;;5116598;28;20052;-77
2023/07/02 03:48:42;;;;;;;20.15;8.40;;;17.90;86.40;;;;;;5098453;28;20040;-77
2023/07/02 03:51:07;;;;;;;17.65;7.32;;;17.90;86.20;;;;;;5098621;28;20026;-77
2023/07/02 03:53:33;;;;;;;20.35;7.97;;;17.80;86.40;;;;;;5115543;28;20503;-77
2023/07/02 03:55:58;;;;;;;18.00;8.07;;;17.80;86.10;;;;;;5115349;28;20024;-77
2023/07/02 03:58:24;;;;;;;19.27;8.68;;;17.80;86.10;;;;;;5098299;28;20032;-77
2023/07/02 04:00:50;;;;;;;20.67;7.90;;;17.70;86.00;;;;;;5115425;28;20034;-78
2023/07/02 04:03:16;;;;;;;19.10;8.18;;;17.70;86.20;;;;;;5115210;28;20024;-77
2023/07/02 04:05:42;;;;;;;18.08;7.82;;;17.60;86.40;;;;;;5115072;28;20020;-78
2023/07/02 04:08:08;;;;;;;24.35;8.52;;;17.60;86.50;;;;;;5115062;28;20024;-78
2023/07/02 04:10:34;;;;;;;27.90;9.45;;;17.60;86.60;;;;;;5098119;28;20032;-77
2023/07/02 04:12:59;;;;;;;26.63;9.18;;;17.60;86.80;;;;;;5115041;28;20050;-77
2023/07/02 04:15:26;;;;;;;19.33;9.13;;;17.60;87.10;;;;;;5115176;28;20031;-77
2023/07/02 04:17:52;;;;;;;21.35;9.00;;;17.60;87.30;;;;;;5115975;28;20028;-77
2023/07/02 04:20:18;;;;;;;23.05;9.75;;;17.50;87.40;;;;;;5098066;28;20032;-77
2023/07/02 04:22:45;;;;;;;23.15;9.18;;;17.50;88.00;;;;;;5098180;28;20028;-78
2023/07/02 04:25:15;;;;;;;22.45;9.57;;;17.40;88.20;;;;;;5115800;28;20035;-76
2023/07/02 04:27:44;;;;;;;22.35;9.70;;;17.40;88.30;;;;;;5115809;28;20023;-78
2023/07/02 04:30:12;;;;;;;24.77;9.43;;;17.40;88.50;;;;;;5097971;28;20028;-77
2023/07/02 04:32:41;;;;;;;24.70;9.82;;;17.40;88.50;;;;;;5115640;28;20070;-77
2023/07/02 04:35:11;;;;;;;21.27;9.52;;;17.40;88.60;;;;;;5097998;28;20032;-77
2023/07/02 04:37:36;;;;;;;24.98;9.38;;;17.50;88.60;;;;;;5115465;28;20114;-77
2023/07/02 04:40:09;;;;;;;24.42;9.82;;;17.50;88.50;;;;;;5097631;28;20032;-78
2023/07/02 04:42:37;;;;;;;25.02;9.75;;;17.40;88.60;;;;;;5098721;28;20391;-77
2023/07/02 04:45:04;;;;;;;28.17;10.98;;;17.50;88.70;;;;;;5115413;28;20024;-78
2023/07/02 04:47:30;;;;;;;24.05;10.32;;;17.50;88.50;;;;;;5115213;28;20077;-77
2023/07/02 04:49:56;;;;;;;27.35;10.38;;;17.50;88.30;;;;;;5115208;28;20016;-78
2023/07/02 04:52:22;;;;;;;21.65;9.68;;;17.50;88.20;;;;;;5097250;28;20031;-79
2023/07/02 04:54:47;;;;;;;23.02;9.15;;;17.50;87.90;;;;;;5097308;28;20021;-77
2023/07/02 04:57:14;;;;;;;23.60;9.65;;;17.50;87.80;;;;;;5115166;28;20036;-77
2023/07/02 04:59:41;;;;;;;24.70;10.18;;;17.50;87.80;;;;;;5114214;28;20050;-77
2023/07/02 05:02:06;;;;;;;23.15;9.75;;;17.60;87.70;;;;;;5114033;28;20032;-77
2023/07/02 05:04:32;;;;;;;23.10;9.55;;;17.50;87.20;;;;;;5097071;28;20071;-77
2023/07/02 05:07:00;;;;;;;18.85;8.68;;;17.50;87.10;;;;;;5097104;28;20023;-77
2023/07/02 05:09:26;;;;;;;22.77;9.60;;;17.50;86.70;;;;;;5113842;28;20020;-77
2023/07/02 05:11:51;;;;;;;28.65;9.88;;;17.60;86.40;;;;;;5097040;28;20012;-77
2023/07/02 05:14:17;;;;;;;23.50;9.68;;;17.50;85.80;;;;;;5113861;28;20368;-77
2023/07/02 05:16:43;;;;;;;23.73;9.38;;;17.50;86.10;;;;;;5096908;28;20032;-77
2023/07/02 05:19:08;;;;;;;20.15;8.63;;;17.50;85.90;;;;;;5114782;28;20073;-78
2023/07/02 05:21:34;;;;;;;20.90;9.05;;;17.50;85.40;;;;;;5113737;28;20502;-78
2023/07/02 05:23:59;;;;;;;23.27;8.93;;;17.50;85.30;;;;;;5096698;28;20039;-78
2023/07/02 05:26:26;;;;;;;21.92;8.73;;;17.60;85.40;;;;;;5113584;28;20036;-78
2023/07/02 05:28:52;;;;;;;22.63;9.10;;;17.60;85.30;;;;;;5113703;28;20016;-78
2023/07/02 05:31:18;;;;;;;22.67;9.95;;;17.60;85.10;;;;;;5113244;28;20044;-78
2023/07/02 05:33:44;;;;;;;23.02;8.77;;;17.60;84.90;;;;;;5096383;28;20032;-78
2023/07/02 05:36:09;;;;;;;18.80;8.10;;;17.60;84.10;;;;;;5114412;28;20047;-78
2023/07/02 05:38:35;;;;;;;20.92;7.90;;;17.70;83.40;;;;;;5113482;28;20052;-78
2023/07/02 05:41:03;;;;;;;20.42;8.63;;;17.70;83.50;;;;;;5113358;28;20055;-78
2023/07/02 05:43:28;;;;;;;19.00;7.20;;;17.80;83.40;;;;;;5114235;28;20053;-78
2023/07/02 05:45:54;;;;;;;15.90;6.70;;;17.90;84.00;;;;;;5096197;28;20028;-78
2023/07/02 05:48:20;;;;;;;15.10;6.20;;;17.90;82.80;;;;;;5112376;28;20024;-78
2023/07/02 05:50:45;;;;;;;15.13;6.40;;;18.00;81.10;;;;;;5113232;28;20024;-78
2023/07/02 05:53:11;;;;;;;16.10;6.25;;;18.00;80.80;;;;;;5096026;28;20028;-77
2023/07/02 05:55:37;;;;;;;18.52;6.63;;;18.00;79.80;;;;;;5113126;28;20088;-78
2023/07/02 05:58:03;;;;;;;17.17;6.13;;;18.00;80.10;;;;;;5114042;28;20031;-78
2023/07/02 06:00:29;;;;;;;14.68;6.05;;;18.00;79.10;;;;;;5113953;28;20032;-78
2023/07/02 06:02:55;;;;;;;16.67;6.57;;;18.10;79.80;;;;;;5096090;28;20089;-77
2023/07/02 06:05:21;;;;;;;17.80;6.32;;;18.00;78.10;;;;;;5112947;28;20020;-78
2023/07/02 06:07:46;;;;;;;13.60;6.05;;;18.00;78.70;;;;;;5112849;28;20032;-77
2023/07/02 06:10:12;;;;;;;18.73;6.50;;;18.10;78.90;;;;;;5113831;28;20024;-77
2023/07/02 06:12:38;;;;;;;17.38;5.95;;;18.10;77.90;;;;;;5095935;28;20032;-77
2023/07/02 06:15:04;;;;;;;14.95;5.63;;;18.10;77.50;;;;;;5112806;28;20020;-77
2023/07/02 06:17:30;;;;;;;16.20;5.72;;;18.10;77.30;;;;;;5112697;28;20099;-78
2023/07/02 06:19:57;;;;;;;14.40;5.88;;;18.10;77.70;;;;;;5112684;28;20100;-77
2023/07/02 06:22:23;;;;;;;13.05;5.50;;;18.20;78.10;;;;;;5112780;28;20027;-76
2023/07/02 06:24:49;;;;;;;14.38;5.75;;;18.30;77.00;;;;;;5095808;28;20031;-78
2023/07/02 06:27:14;;;;;;;16.25;5.45;;;18.30;76.10;;;;;;5112475;28;20028;-77
2023/07/02 06:29:40;;;;;;;14.23;5.72;;;18.30;76.40;;;;;;5095646;28;20031;-77
2023/07/02 06:32:06;;;;;;;19.42;6.00;;;18.30;76.20;;;;;;5112124;28;20074;-77
2023/07/02 06:34:32;;;;;;;17.13;5.43;;;18.40;76.00;;;;;;5112494;28;20036;-77
2023/07/02 06:36:57;;;;;;;19.27;6.15;;;18.40;75.40;;;;;;5113477;28;20066;-77
2023/07/02 06:39:23;;;;;;;15.02;5.35;;;18.40;75.60;;;;;;5112540;28;20020;-76
2023/07/02 06:41:48;;;;;;;15.23;5.43;;;18.40;75.20;;;;;;5095519;28;20028;-76
2023/07/02 06:44:14;;;;;;;16.38;5.45;;;18.40;74.70;;;;;;5112517;28;20032;-77
2023/07/02 06:46:40;;;;;;;15.50;5.88;;;18.40;74.80;;;;;;5113325;28;20043;-76
2023/07/02 06:49:05;;;;;;;15.30;5.75;;;18.40;75.10;;;;;;5112482;28;20023;-77
2023/07/02 06:51:31;;;;;;;12.75;5.53;;;18.40;75.00;;;;;;5113332;28;20063;-76
2023/07/02 06:53:57;;;;;;;16.27;4.72;;;18.50;74.70;;;;;;5095558;28;20028;-78
2023/07/02 06:56:22;;;;;;;11.05;4.68;;;18.50;72.90;;;;;;5095439;28;20028;-77
2023/07/02 06:58:48;;;;;;;12.48;5.00;;;18.40;72.20;;;;;;5112788;28;20055;-77
2023/07/02 07:01:13;;;;;;;12.52;4.95;;;18.50;72.80;;;;;;5116615;28;20061;-78
2023/07/02 07:03:39;;;;;;;15.43;4.78;;;18.50;72.90;;;;;;5099440;28;20039;-78
2023/07/02 07:06:05;;;;;;;12.13;4.03;;;18.50;72.40;;;;;;5099404;28;20028;-78
2023/07/02 07:08:30;;;;;;;15.48;4.70;;;18.60;72.30;;;;;;5117356;28;20107;-77
2023/07/02 07:10:56;;;;;;;13.82;4.45;;;18.60;72.00;;;;;;5116542;28;20021;-78
2023/07/02 07:13:21;;;;;;;13.20;4.30;;;18.70;72.10;;;;;;5099288;28;20028;-77
2023/07/02 07:15:47;;;;;;;7.85;4.07;;;18.70;71.80;;;;;;5117133;28;20032;-78
2023/07/02 07:18:13;;;;;;;10.35;3.78;;;18.70;71.40;;;;;;5099224;28;20032;-78
2023/07/02 07:20:42;;;;;;;12.25;3.85;;;18.80;70.90;;;;;;5116033;28;20088;-78
2023/07/02 07:23:08;;;;;;;10.10;3.70;;;18.80;70.80;;;;;;5099605;28;20031;-77
2023/07/02 07:25:34;;;;;;;12.27;5.10;;;18.90;70.30;;;;;;5099171;28;20028;-79
2023/07/02 07:28:00;;;;;;;11.93;4.40;;;18.90;69.40;;;;;;5115806;28;20028;-80
2023/07/02 07:30:26;;;;;;;12.90;4.88;;;18.80;70.80;;;;;;5099053;28;20020;-82
2023/07/02 07:32:56;;;;;;;11.95;4.70;;;18.80;71.50;;;;;;5098708;28;20063;-84
2023/07/02 07:35:22;;;;;;;12.93;4.78;;;18.90;72.30;;;;;;5098796;28;20036;-77
2023/07/02 07:37:48;;;;;;;15.63;4.93;;;18.90;71.50;;;;;;5116738;28;20027;-81
2023/07/02 07:40:14;;;;;;;13.43;4.78;;;18.90;72.10;;;;;;5115769;28;20056;-77
2023/07/02 07:42:43;;;;;;;13.75;5.32;;;18.80;71.60;;;;;;5115812;28;20032;-78
2023/07/02 07:45:11;;;;;;;15.23;4.50;;;18.90;71.80;;;;;;5098610;28;20035;-78
2023/07/02 07:47:36;;;;;;;14.05;5.43;;;18.90;72.00;;;;;;5098688;28;20024;-77
2023/07/02 07:50:02;;;;;;;14.35;4.47;;;18.90;71.60;;;;;;5098535;28;20016;-78
2023/07/02 07:52:28;;;;;;;13.52;4.65;;;19.00;72.00;;;;;;5115456;28;20024;-77
2023/07/02 07:54:53;;;;;;;12.82;4.70;;;19.10;72.60;;;;;;5098536;28;20020;-77
2023/07/02 07:57:19;;;;;;;9.77;4.35;;;19.10;71.50;;;;;;5116364;28;20471;-79
2023/07/02 07:59:45;;;;;;;11.00;4.40;;;19.10;71.30;;;;;;5116331;28;20032;-76
2023/07/02 08:02:10;;;;;;;13.10;4.57;;;19.00;69.90;;;;;;5098422;28;20028;-77
2023/07/02 08:04:36;;;;;;;13.65;4.65;;;19.00;70.90;;;;;;5115288;28;20032;-78
2023/07/02 08:07:04;;;;;;;13.80;4.43;;;19.00;71.40;;;;;;5115113;28;20118;-77
2023/07/02 08:09:30;;;;;;;11.80;4.95;;;19.10;71.00;;;;;;5116122;28;20028;-77
2023/07/02 08:11:55;;;;;;;9.90;4.63;;;19.10;71.50;;;;;;5115191;28;20024;-77
2023/07/02 08:14:21;;;;;;;12.10;4.63;;;19.20;71.70;;;;;;5115065;28;20024;-77
2023/07/02 08:16:46;;;;;;;11.52;4.55;;;19.30;72.20;;;;;;5114933;28;20108;-77
2023/07/02 08:19:12;;;;;;;13.18;5.05;;;19.40;70.80;;;;;;5098183;28;20020;-77
2023/07/02 08:21:38;;;;;;;11.65;4.20;;;19.40;69.80;;;;;;5114923;28;20633;-77
2023/07/02 08:24:04;;;;;;;10.45;4.03;;;19.50;69.60;;;;;;5115823;28;20077;-77
2023/07/02 08:26:29;;;;;;;9.82;4.32;;;19.50;67.90;;;;;;5115683;28;20024;-78
2023/07/02 08:28:55;;;;;;;8.20;3.80;;;19.50;68.30;;;;;;5114785;28;20032;-77
2023/07/02 08:31:21;;;;;;;13.15;4.03;;;19.50;66.80;;;;;;5114795;28;20021;-77
2023/07/02 08:33:47;;;;;;;9.57;4.00;;;19.40;66.40;;;;;;5115412;28;20052;-77
2023/07/02 08:36:13;;;;;;;10.57;4.22;;;19.50;67.40;;;;;;5114707;28;20020;-77
2023/07/02 08:38:41;;;;;;;8.88;3.67;;;19.50;66.90;;;;;;5097943;28;20023;-77
2023/07/02 08:41:07;;;;;;;9.88;4.03;;;19.50;67.30;;;;;;5115519;28;20024;-77
2023/07/02 08:43:35;;;;;;;10.18;4.03;;;19.50;66.90;;;;;;5115443;28;20040;-78
2023/07/02 08:46:01;;;;;;;8.80;3.42;;;19.60;67.40;;;;;;5115349;28;20052;-77
2023/07/02 08:48:29;;;;;;;12.27;4.18;;;19.60;67.70;;;;;;5114295;28;20028;-77
2023/07/02 08:50:56;;;;;;;10.88;4.00;;;19.60;68.00;;;;;;5114360;28;20024;-77
2023/07/02 08:53:29;;;;;;;9.30;3.85;;;19.70;67.50;;;;;;5097453;28;20471;-77
2023/07/02 08:55:59;;;;;;;9.43;3.67;;;19.70;67.40;;;;;;5115318;28;20091;-77
2023/07/02 08:58:25;;;;;;;10.57;3.65;;;19.70;67.30;;;;;;5098011;28;20032;-77
2023/07/02 09:01:11;;;;;;;11.82;4.15;;;19.70;68.50;;;;;;5114115;28;20062;-77
2023/07/02 09:03:38;;;;;;;9.95;3.70;;;19.80;67.50;;;;;;5113980;28;20023;-77
2023/07/02 09:06:08;;;;;;;9.63;3.70;;;19.80;67.40;;;;;;5097111;28;20032;-77
2023/07/02 09:08:34;;;;;;;8.68;2.90;;;19.90;67.50;;;;;;5115184;28;20095;-77
2023/07/02 09:11:10;;;;;;;10.88;4.25;;;19.80;65.70;;;;;;5114868;28;20024;-77
2023/07/02 09:13:49;;;;;;;7.47;3.30;;;19.70;64.60;;;;;;5114914;28;20030;-77
2023/07/02 09:16:41;;;;;;;7.78;3.80;;;19.70;63.60;;;;;;5114832;28;20028;-76
2023/07/02 09:19:08;;;;;;;8.02;3.90;;;19.60;61.50;;;;;;5109439;28;20032;-77
2023/07/02 09:21:47;;;;;;;10.60;3.70;;;19.50;63.10;;;;;;5114753;28;20024;-77
2023/07/02 09:24:21;;;;;;;9.82;3.70;;;19.50;62.80;;;;;;5113662;28;20032;-77
2023/07/02 09:26:49;;;;;;;7.90;3.53;;;19.50;63.80;;;;;;5096829;28;20032;-78
2023/07/02 09:29:23;;;;;;;8.70;3.30;;;19.50;64.50;;;;;;5096776;28;20028;-78
2023/07/02 09:31:49;;;;;;;10.45;4.72;;;19.70;65.60;;;;;;5113426;28;20016;-77
2023/07/02 09:34:15;;;;;;;9.68;4.07;;;19.90;65.30;;;;;;5114310;28;20048;-76
2023/07/02 09:36:41;;;;;;;9.05;3.70;;;20.00;64.60;;;;;;5096491;28;20043;-77
2023/07/02 09:39:13;;;;;;;9.63;4.13;;;20.10;63.70;;;;;;5113420;28;20083;-77
2023/07/02 09:41:42;;;;;;;;;;;20.20;64.00;;;;;;5113601;28;20020;-77
2023/07/02 09:44:10;;;;;;;10.70;3.67;;;20.30;63.90;;;;;;5114393;28;19929;-77
2023/07/02 09:46:42;;;;;;;10.15;3.80;;;20.30;63.00;;;;;;5114176;28;20024;-77
2023/07/02 09:49:14;;;;;;;11.82;4.07;;;20.30;62.20;;;;;;5113306;28;20023;-78
2023/07/02 09:51:40;;;;;;;11.07;4.00;;;20.40;62.40;;;;;;5113176;28;20024;-78
2023/07/02 09:54:06;;;;;;;11.20;4.05;;;20.40;62.40;;;;;;5113165;28;20086;-78
2023/07/02 09:56:32;;;;;;;9.93;4.30;;;20.50;61.90;;;;;;5113046;28;20028;-78
2023/07/02 09:58:57;;;;;;;9.63;3.50;;;20.50;61.00;;;;;;5113119;28;20024;-79
2023/07/02 10:01:23;;;;;;;12.18;3.55;;;20.50;61.60;;;;;;5113255;28;20021;-78
2023/07/02 10:03:49;;;;;;;10.73;4.07;;;20.50;60.20;;;;;;5113042;28;20051;-78
2023/07/02 10:06:14;;;;;;;8.15;3.45;;;20.60;62.30;;;;;;5096088;28;20042;-78
2023/07/02 10:08:40;;;;;;;9.25;4.10;;;20.80;61.70;;;;;;5113109;28;20038;-79
2023/07/02 10:11:10;;;;;;;14.10;3.95;;;20.70;60.80;;;;;;5113077;28;20028;-78
2023/07/02 10:13:35;;;;;;;10.90;4.05;;;20.60;60.70;;;;;;5113824;28;20543;-78
2023/07/02 10:16:05;;;;;;;12.82;4.32;;;20.60;60.80;;;;;;5095984;28;20024;-78
2023/07/02 10:18:31;;;;;;;9.15;3.72;;;20.60;61.10;;;;;;5112836;28;20079;-79
2023/07/02 10:20:57;;;;;;;13.77;4.40;;;20.50;60.10;;;;;;5112837;28;20043;-79
2023/07/02 10:23:43;;;;;;;11.27;3.58;;;20.40;61.10;;;;;;5112874;28;20028;-80
2023/07/02 10:26:18;;;;;;;11.52;3.75;;;20.40;60.80;;;;;;5113352;28;20029;-78
2023/07/02 10:28:58;;;;;;;7.68;3.75;;;20.40;62.00;;;;;;5113644;28;20024;-77
2023/07/02 10:31:23;;;;;;;10.00;3.92;;;20.40;61.20;;;;;;5113625;28;20027;-77
2023/07/02 10:33:49;;;;;;;10.45;3.72;;;20.40;61.30;;;;;;5094980;28;20040;-77
2023/07/02 10:36:20;;;;;;;12.07;3.78;;;20.30;61.20;;;;;;5095610;28;20036;-78
2023/07/02 10:38:46;;;;;;;8.57;3.47;;;20.40;61.80;;;;;;5095990;28;20031;-78
2023/07/02 10:41:27;;;;;;;13.23;4.22;;;20.50;62.90;;;;;;5095508;28;20032;-78
2023/07/02 10:43:52;;;;;;;8.32;4.10;;;20.50;62.40;;;;;;5113563;28;20031;-78
2023/07/02 10:46:22;;;;;;;10.38;4.32;;;20.60;63.30;;;;;;5095417;28;20566;-76
2023/07/02 10:48:52;;;;;;;11.85;4.25;;;20.80;62.50;;;;;;5112438;28;20029;-78
2023/07/02 10:51:17;;;;;;;14.55;4.47;;;20.90;60.60;;;;;;5112374;28;20028;-78
2023/07/02 10:53:43;;;;;;;13.27;4.72;;;21.00;59.80;;;;;;5095400;28;20031;-78
2023/07/02 10:56:16;;;;;;;12.13;4.13;;;20.90;59.10;;;;;;5112420;28;20035;-78
2023/07/02 10:58:46;;;;;;;12.07;4.05;;;20.80;60.10;;;;;;5113595;28;20025;-78
2023/07/02 11:01:11;;;;;;;9.98;4.07;;;20.90;60.20;;;;;;5095513;28;20025;-79
2023/07/02 11:03:37;;;;;;;11.07;4.32;;;21.00;61.70;;;;;;5095379;28;20042;-79
2023/07/02 11:06:03;;;;;;;8.85;4.00;;;21.10;59.70;;;;;;5095309;28;20028;-78
2023/07/02 11:08:36;;;;;;;15.13;4.78;;;21.10;58.50;;;;;;5112471;28;20036;-78
2023/07/02 11:11:08;;;;;;;10.75;4.10;;;21.10;58.00;;;;;;5113332;28;20027;-79
2023/07/02 11:13:33;;;;;;;;;;;21.10;60.10;;;;;;5112876;28;20025;-78
2023/07/02 11:15:59;;;;;;;11.60;3.85;;;21.20;58.90;;;;;;5112190;28;19908;-78
2023/07/02 11:18:30;;;;;;;11.90;4.55;;;20.90;58.60;;;;;;5095299;28;20037;-79
2023/07/02 11:20:56;;;;;;;10.18;4.32;;;20.80;60.50;;;;;;5112183;28;20028;-78
2023/07/02 11:23:23;;;;;;;14.57;4.65;;;20.70;61.90;;;;;;5095267;28;20040;-79
2023/07/02 11:25:59;;;;;;;11.95;4.07;;;20.90;62.90;;;;;;5095379;28;20044;-78
2023/07/02 11:28:26;;;;;;;10.77;4.05;;;21.10;60.60;;;;;;5112050;28;20085;-78
2023/07/02 11:30:52;;;;;;;10.60;4.40;;;21.10;60.30;;;;;;5095306;28;20020;-78
2023/07/02 11:33:18;;;;;;;11.77;4.60;;;21.00;59.80;;;;;;5094865;28;20446;-78
2023/07/02 11:35:43;;;;;;;9.80;4.75;;;21.00;58.90;;;;;;5113005;28;20528;-78
2023/07/02 11:38:13;;;;;;;12.18;4.18;;;20.90;59.30;;;;;;5112037;28;20067;-78
2023/07/02 11:40:38;;;;;;;13.93;5.28;;;20.80;59.70;;;;;;5112015;28;20052;-78
2023/07/02 11:43:05;;;;;;;12.10;3.83;;;20.60;59.10;;;;;;5112899;28;20033;-77
2023/07/02 11:45:31;;;;;;;13.00;4.75;;;20.50;59.60;;;;;;5095185;28;20091;-78
2023/07/02 11:47:57;;;;;;;10.48;4.30;;;20.40;59.60;;;;;;5116663;28;20032;-78
2023/07/02 11:50:22;;;;;;;9.73;4.85;;;20.30;60.50;;;;;;5115698;28;20024;-78
2023/07/02 11:52:48;;;;;;;12.02;4.75;;;20.40;60.80;;;;;;5115742;28;20028;-81
2023/07/02 11:55:13;;;;;;;11.20;4.57;;;20.50;60.30;;;;;;5115699;28;20036;-78
2023/07/02 11:57:39;;;;;;;10.82;4.05;;;20.40;60.70;;;;;;5098468;28;20028;-77
2023/07/02 12:00:05;;;;;;;11.00;4.05;;;20.60;62.00;;;;;;5115487;28;20040;-78
2023/07/02 12:02:31;;;;;;;12.95;4.80;;;20.70;61.30;;;;;;5115410;28;20032;-80
2023/07/02 12:04:56;;;;;;;12.02;5.18;;;20.90;60.00;;;;;;5098335;28;20039;-81
2023/07/02 12:07:22;;;;;;;10.48;4.47;;;20.90;59.50;;;;;;5098298;28;20039;-79
2023/07/02 12:09:48;;;;;;;10.48;4.18;;;20.90;59.80;;;;;;5115305;28;20033;-78
2023/07/02 12:12:13;;;;;;;10.15;3.63;;;21.10;59.50;;;;;;5115401;28;20036;-80
2023/07/02 12:14:43;;;;;;;8.60;3.83;;;21.20;58.30;;;;;;5115303;28;20031;-85
2023/07/02 12:17:09;;;;;;;11.57;4.30;;;21.20;57.20;;;;;;5098662;28;20028;-79
2023/07/02 12:19:34;;;;;;;10.40;4.10;;;21.20;57.80;;;;;;5114982;28;20031;-77
2023/07/02 12:22:00;;;;;;;16.33;4.70;;;21.20;57.80;;;;;;5098143;28;20059;-78
2023/07/02 12:24:25;;;;;;;9.75;4.35;;;21.20;58.70;;;;;;5114945;28;20043;-78
2023/07/02 12:26:51;;;;;;;12.13;4.28;;;21.20;58.30;;;;;;5097843;28;20077;-78
2023/07/02 12:29:16;;;;;;;10.20;4.13;;;21.30;59.20;;;;;;5114780;28;20024;-78
2023/07/02 12:31:42;;;;;;;14.30;4.65;;;21.30;60.70;;;;;;5097917;28;20024;-79
2023/07/02 12:34:08;;;;;;;13.38;4.50;;;21.40;59.90;;;;;;5114458;28;20164;-78
2023/07/02 12:36:33;;;;;;;9.07;3.72;;;21.40;59.00;;;;;;5114892;28;20032;-78